Share

Bangkok (Don Mueang), Thailand

7:44 PM ICT on April 23, 2014 (GMT +0700)
Khu Khot (IPATHUMT2) Elev 15 ft | 13.96 °N, 100.65 °E | Change Station

Current weather conditions updated 47 seconds ago

Mostly Cloudy
Mostly Cloudy
89.4 °F
Feels Like 104 °F
N
2.7
Wind Variable Wind from SSW
Gusts 2.7 mph
Sunrise 6:00 AM
Sunset 6:32 PM
Moon Last Quarter

Tomorrow is forecast to be Cooler than today. Showers and thunderstorms late tomorrow night.

Pressure 29.74 in
Visibility 6.2 miles
Clouds Few 2000 ft
Mostly Cloudy 30000 ft
Heat Index 104 °F
Dew Point 78 °F
Humidity 69%
Rainfall 0.00 in
Snow Depth Not available.
UV 0 out of 16
Pollen Not available.
Air Quality Not available.
Flu Activity Not available.
METAR VTBD 231230Z 20008KT 9999 FEW020 BKN300 32/25 Q1007 NOSIG

More Conditions Fewer Conditions

Pressure 29.74 in
Visibility 6.2 miles
Clouds Few 2000 ft
Mostly Cloudy 30000 ft
Heat Index 104 °F
Dew Point 78 °F
Humidity 69%
Rainfall 0.00 in
Snow Depth Not available.
UV 0 out of 16
Pollen Not available.
Air Quality Not available.
Flu Activity Not available.
METAR VTBD 231230Z 20008KT 9999 FEW020 BKN300 32/25 Q1007 NOSIG

More Conditions Fewer Conditions

10-Day Weather Forecast

Almanac

Astronomy

Apr. 23, 2014 Rise Set
Actual Time 6:00 AM ICT 6:32 PM ICT
Civil Twilight 5:38 AM ICT 6:54 PM ICT
Nautical Twilight 5:12 AM ICT 7:19 PM ICT
Astronomical Twilight 4:46 AM ICT 7:45 PM ICT
Moon 1:05 AM ICT 1:05 PM ICT
Length of Visible Light 13h 15m
Length of Day
12h 32m
Tomorrow will be 0m 42s longer.
Last Quarter, 36% of the Moon is Illuminated
Today
Last Quarter
Apr 29
New
May 6
First Quarter
May 14
Full
May 21
Last Quarter

Yesterday's Extremes

Country Highs Country Lows

Community

  • Earth Day Spectrum Ove' Blue
    Earth Day Spectrum Ove' Blue
  • April Sunset
    April Sunset
  • Waiting..
    Waiting..
  • Sunset...
    Sunset...
  • Happy outdoor day
    Happy outdoor day

WunderPhotos

Upload Photos

1,704,257 photos uploaded!

Nearby

Snow Depth

Not available.

Coastal Water Temperatures

Place Temperature
No Stations Reporting

Earthquake Activity

City Distance Mag. Time & Date
No recent earthquake activity has been reported nearby.
Minimum magnitude displayed is 2.5.

Nearby Weather Stations

Station Location Temp. Heat Index Dew Point Humidity Wind Precip. Elev Updated Type
Khu Khot, Pathum Thani 89.4 °F 104 °F 78 °F 69% SSW  at  2.7 mph 0.00 in / hr 15 ft 7:43 PM ICT Rapid Fire
Patumwan Demonstration School, Bangkok 88.2 °F 106 °F 81 °F 78% South  at  1.0 mph 0.00 in / hr 46 ft 7:41 PM ICT Normal
Dokmai, Pravet, Bangkok 88.0 °F 99 °F 76 °F 68% South  at  7.0 mph 0.00 in / hr 10 ft 7:44 PM ICT Rapid Fire

Show More Stations Show Fewer Stations

What do you think?

We're not finished. Please let us know what you like, what you don't like, and what you are still missing.